createdAt,value
2023-01-10T00:00:30.379Z,4.13
2023-01-10T00:01:31.419Z,4.16
2023-01-10T00:02:31.964Z,4.14
2023-01-10T00:03:32.673Z,4.24
2023-01-10T00:04:33.824Z,4.21
2023-01-10T00:05:33.915Z,4.24
2023-01-10T00:06:34.835Z,4.21
2023-01-10T00:07:35.028Z,4.22
2023-01-10T00:08:35.660Z,4.24
2023-01-10T00:09:35.875Z,4.24
2023-01-10T00:10:36.394Z,4.2
2023-01-10T00:11:36.301Z,4.3
2023-01-10T00:12:36.488Z,4.31
2023-01-10T00:13:37.674Z,4.32
2023-01-10T00:14:38.662Z,4.27
2023-01-10T00:15:38.888Z,4.24
2023-01-10T00:16:39.899Z,4.28
2023-01-10T00:17:40.408Z,4.27
2023-01-10T00:18:40.620Z,4.3
2023-01-10T00:19:41.587Z,4.3
2023-01-10T00:20:41.509Z,4.38
2023-01-10T00:21:42.439Z,4.36
2023-01-10T00:22:43.086Z,4.42
2023-01-10T00:23:43.703Z,4.27
2023-01-10T00:24:44.351Z,4.4
2023-01-10T00:25:44.271Z,4.38
2023-01-10T00:26:45.060Z,4.4
2023-01-10T00:27:45.026Z,4.31
2023-01-10T00:28:45.099Z,4.38
2023-01-10T00:29:46.376Z,4.39
2023-01-10T00:30:46.878Z,4.38
2023-01-10T00:31:46.910Z,4.34
2023-01-10T00:32:47.915Z,4.39
2023-01-10T00:33:48.400Z,4.36
2023-01-10T00:34:48.085Z,4.34
2023-01-10T00:35:49.292Z,4.38
2023-01-10T00:36:49.649Z,4.48
2023-01-10T00:37:51.160Z,4.48
2023-01-10T00:38:51.652Z,4.48
2023-01-10T00:39:51.595Z,4.52
2023-01-10T00:40:52.785Z,4.49
2023-01-10T00:41:53.030Z,4.48
2023-01-10T00:42:53.070Z,4.49
2023-01-10T00:43:53.999Z,4.57
2023-01-10T00:44:54.540Z,4.53
2023-01-10T00:45:54.884Z,4.56
2023-01-10T00:46:55.475Z,4.56
2023-01-10T00:47:55.685Z,4.5
2023-01-10T00:48:55.894Z,4.52
2023-01-10T00:49:56.569Z,4.63
2023-01-10T00:50:57.243Z,4.58
2023-01-10T00:51:58.477Z,4.66
2023-01-10T00:52:59.506Z,4.56
2023-01-10T00:53:59.706Z,4.67
2023-01-10T00:54:59.902Z,4.57
2023-01-10T00:56:00.123Z,4.61
2023-01-10T00:57:00.801Z,4.71
2023-01-10T00:58:01.002Z,4.68
2023-01-10T00:59:01.209Z,4.68
2023-01-10T01:00:02.476Z,4.66
2023-01-10T01:01:03.207Z,4.66
2023-01-10T01:02:03.181Z,4.75
2023-01-10T01:03:04.001Z,4.68
2023-01-10T01:04:04.028Z,4.67
2023-01-10T01:05:03.997Z,4.66
2023-01-10T01:06:05.212Z,4.67
2023-01-10T01:07:05.847Z,4.67
2023-01-10T01:08:06.361Z,4.7
2023-01-10T01:09:07.009Z,4.67
2023-01-10T01:10:07.931Z,4.66
2023-01-10T01:11:08.436Z,4.63
2023-01-10T01:12:08.679Z,4.67
2023-01-10T01:13:09.093Z,4.75
2023-01-10T01:14:10.042Z,4.67
2023-01-10T01:15:11.014Z,4.67
2023-01-10T01:16:11.480Z,4.7
2023-01-10T01:17:11.806Z,4.7
2023-01-10T01:18:12.466Z,4.71
2023-01-10T01:19:13.389Z,4.7
2023-01-10T01:20:14.626Z,4.78
2023-01-10T01:21:14.299Z,4.76
2023-01-10T01:22:15.499Z,4.74
2023-01-10T01:23:16.547Z,4.82
2023-01-10T01:24:17.765Z,4.76
2023-01-10T01:25:17.971Z,4.79
2023-01-10T01:26:18.455Z,4.76
2023-01-10T01:27:19.150Z,4.79
2023-01-10T01:28:19.631Z,4.82
2023-01-10T01:29:20.147Z,4.78
2023-01-10T01:30:21.296Z,4.79
2023-01-10T01:31:22.149Z,4.78
2023-01-10T01:32:22.157Z,4.83
2023-01-10T01:33:22.720Z,4.89
2023-01-10T01:34:23.208Z,4.79
2023-01-10T01:35:23.872Z,4.84
2023-01-10T01:36:24.796Z,4.84
2023-01-10T01:37:25.015Z,4.83
2023-01-10T01:38:25.652Z,4.78
2023-01-10T01:39:26.293Z,4.75
2023-01-10T01:40:27.191Z,4.82
2023-01-10T01:41:27.268Z,4.84
2023-01-10T01:42:28.499Z,4.76
2023-01-10T01:43:28.976Z,4.76
2023-01-10T01:44:29.173Z,4.78
2023-01-10T01:45:29.720Z,4.76
2023-01-10T01:46:29.808Z,4.82
2023-01-10T01:47:30.444Z,4.82
2023-01-10T01:48:30.671Z,4.82
2023-01-10T01:49:31.598Z,4.75
2023-01-10T01:50:31.819Z,4.74
2023-01-10T01:51:32.157Z,4.78
2023-01-10T01:52:32.800Z,4.75
2023-01-10T01:53:33.544Z,4.79
2023-01-10T01:54:34.194Z,4.75
2023-01-10T01:55:35.123Z,4.71
2023-01-10T01:56:36.348Z,4.71
2023-01-10T01:57:37.139Z,4.67
2023-01-10T01:58:37.355Z,4.68
2023-01-10T01:59:37.843Z,4.7
2023-01-10T02:00:38.221Z,4.67
2023-01-10T02:01:38.868Z,4.68
2023-01-10T02:02:38.922Z,4.67
2023-01-10T02:03:43.990Z,4.66
2023-01-10T02:04:44.067Z,4.66
2023-01-10T02:05:45.012Z,4.66
2023-01-10T02:06:46.231Z,4.61
2023-01-10T02:07:46.446Z,4.68
2023-01-10T02:08:46.955Z,4.76
2023-01-10T02:09:46.908Z,4.74
2023-01-10T02:10:48.121Z,4.74
2023-01-10T02:11:48.327Z,4.66
2023-01-10T02:12:48.694Z,4.67
2023-01-10T02:13:49.967Z,4.58
2023-01-10T02:14:50.182Z,4.66
2023-01-10T02:15:51.073Z,4.6
2023-01-10T02:16:52.124Z,4.57
2023-01-10T02:17:52.064Z,4.57
2023-01-10T02:18:52.703Z,4.58
2023-01-10T02:19:52.949Z,4.57
2023-01-10T02:20:53.467Z,4.53
2023-01-10T02:21:53.689Z,4.6
2023-01-10T02:22:53.603Z,4.58
2023-01-10T02:23:54.654Z,4.5
2023-01-10T02:24:55.843Z,4.56
2023-01-10T02:25:56.483Z,4.52
2023-01-10T02:26:57.390Z,4.43
2023-01-10T02:27:57.659Z,4.52
2023-01-10T02:28:57.854Z,4.57
2023-01-10T02:29:58.354Z,4.45
2023-01-10T02:30:58.776Z,4.57
2023-01-10T02:31:59.109Z,4.52
2023-01-10T02:33:10.451Z,4.52
2023-01-10T02:33:58.373Z,4.48
2023-01-10T02:34:59.102Z,4.38
2023-01-10T02:36:00.030Z,4.49
2023-01-10T02:37:00.524Z,4.46
2023-01-10T02:38:00.865Z,4.46
2023-01-10T02:39:02.105Z,4.36
2023-01-10T02:40:02.329Z,4.52
2023-01-10T02:41:03.004Z,4.52
2023-01-10T02:42:04.198Z,4.46
2023-01-10T02:43:04.156Z,4.43
2023-01-10T02:44:04.582Z,4.39
2023-01-10T02:45:04.730Z,4.46
2023-01-10T02:46:05.568Z,4.36
2023-01-10T02:47:05.349Z,4.3
2023-01-10T02:48:05.983Z,4.32
2023-01-10T02:49:07.202Z,4.39
2023-01-10T02:50:07.122Z,4.38
2023-01-10T02:51:08.321Z,4.27
2023-01-10T02:52:08.678Z,4.27
2023-01-10T02:53:09.600Z,4.25
2023-01-10T02:54:09.916Z,4.31
2023-01-10T02:55:09.847Z,4.3
2023-01-10T02:56:11.035Z,4.36
2023-01-10T02:57:11.552Z,4.3
2023-01-10T02:58:11.760Z,4.27
2023-01-10T02:59:12.244Z,4.22
2023-01-10T03:00:12.450Z,4.31
2023-01-10T03:01:13.433Z,4.27
2023-01-10T03:02:14.249Z,4.22
2023-01-10T03:03:14.489Z,4.27
2023-01-10T03:04:15.513Z,4.21
2023-01-10T03:05:16.665Z,4.21
2023-01-10T03:06:16.608Z,4.24
2023-01-10T03:07:17.252Z,4.3
2023-01-10T03:08:17.890Z,4.28
2023-01-10T03:09:18.543Z,4.27
2023-01-10T03:10:19.041Z,4.24
2023-01-10T03:11:19.233Z,4.28
2023-01-10T03:12:19.152Z,4.24
2023-01-10T03:13:20.117Z,4.21
2023-01-10T03:14:21.122Z,4.14
2023-01-10T03:15:21.339Z,4.21
2023-01-10T03:16:21.899Z,4.21
2023-01-10T03:17:22.003Z,4.27
2023-01-10T03:18:22.196Z,4.21
2023-01-10T03:19:22.396Z,4.18
2023-01-10T03:20:22.348Z,4.18
2023-01-10T03:21:22.606Z,4.18
2023-01-10T03:22:22.516Z,4.2
2023-01-10T03:23:23.421Z,4.2
2023-01-10T03:24:24.036Z,4.2
2023-01-10T03:25:23.932Z,4.07
2023-01-10T03:26:24.869Z,4.13
2023-01-10T03:27:26.083Z,4.2
2023-01-10T03:28:27.010Z,4.16
2023-01-10T03:29:27.501Z,4.13
2023-01-10T03:30:27.714Z,4.14
2023-01-10T03:31:28.967Z,4.13
2023-01-10T03:32:29.305Z,4.12
2023-01-10T03:33:30.234Z,4.12
2023-01-10T03:34:30.691Z,4.14
2023-01-10T03:35:31.174Z,4.14
2023-01-10T03:36:31.719Z,4.14
2023-01-10T03:37:32.193Z,4.07
2023-01-10T03:38:32.103Z,4.09
2023-01-10T03:39:32.627Z,4.13
2023-01-10T03:40:32.852Z,4.07
2023-01-10T03:41:33.084Z,4.14
2023-01-10T03:42:33.031Z,4.12
2023-01-10T03:43:33.244Z,4.04
2023-01-10T03:44:33.855Z,4.12
2023-01-10T03:45:34.084Z,4.16
2023-01-10T03:46:34.457Z,4.12
2023-01-10T03:47:34.497Z,4.13
2023-01-10T03:48:35.434Z,4.2
2023-01-10T03:49:36.044Z,4.21
2023-01-10T03:50:36.951Z,4.21
2023-01-10T03:51:37.894Z,4.14
2023-01-10T03:52:38.086Z,4.21
2023-01-10T03:53:39.276Z,4.24
2023-01-10T03:54:39.299Z,4.22
2023-01-10T03:55:39.515Z,4.2
2023-01-10T03:56:40.411Z,4.3
2023-01-10T03:57:41.047Z,4.18
2023-01-10T03:58:41.265Z,4.3
2023-01-10T03:59:40.920Z,4.3
2023-01-10T04:00:41.564Z,4.28
2023-01-10T04:01:42.543Z,4.25
2023-01-10T04:02:42.223Z,4.27
2023-01-10T04:03:42.478Z,4.28
2023-01-10T04:04:42.964Z,4.36
2023-01-10T04:05:43.137Z,4.3
2023-01-10T04:06:43.368Z,4.34
2023-01-10T04:07:43.335Z,4.3
2023-01-10T04:08:43.975Z,4.25
2023-01-10T04:09:44.485Z,4.25
2023-01-10T04:10:44.698Z,4.28
2023-01-10T04:11:44.926Z,4.28
2023-01-10T04:12:45.422Z,4.28
2023-01-10T04:13:46.369Z,4.2
2023-01-10T04:14:47.373Z,4.28
2023-01-10T04:15:47.623Z,4.32
2023-01-10T04:16:47.894Z,4.3
2023-01-10T04:17:49.120Z,4.31
2023-01-10T04:18:49.332Z,4.31
2023-01-10T04:19:50.297Z,4.31
2023-01-10T04:20:52.753Z,4.25
2023-01-10T04:21:50.691Z,4.21
2023-01-10T04:22:51.377Z,4.25
2023-01-10T04:23:51.600Z,4.21
2023-01-10T04:24:52.046Z,4.2
2023-01-10T04:25:52.584Z,4.18
2023-01-10T04:26:53.221Z,4.25
2023-01-10T04:27:53.722Z,4.21
2023-01-10T04:28:53.952Z,4.24
2023-01-10T04:29:55.165Z,4.22
2023-01-10T04:30:55.360Z,4.16
2023-01-10T04:31:56.659Z,4.2
2023-01-10T04:32:56.855Z,4.21
2023-01-10T04:33:58.104Z,4.24
2023-01-10T04:34:58.120Z,4.3
2023-01-10T04:35:59.047Z,4.24
2023-01-10T04:36:59.293Z,4.3
2023-01-10T04:38:00.209Z,4.2
2023-01-10T04:39:01.455Z,4.27
2023-01-10T04:40:01.975Z,4.21
2023-01-10T04:41:01.894Z,4.25
2023-01-10T04:42:02.530Z,4.3
2023-01-10T04:43:03.760Z,4.3
2023-01-10T04:44:05.022Z,4.21
2023-01-10T04:45:05.360Z,4.22
2023-01-10T04:46:06.014Z,4.27
2023-01-10T04:47:06.325Z,4.3
2023-01-10T04:48:06.261Z,4.25
2023-01-10T04:49:06.917Z,4.18
2023-01-10T04:50:08.133Z,4.16
2023-01-10T04:51:08.362Z,4.21
2023-01-10T04:52:09.594Z,4.2
2023-01-10T04:53:10.524Z,4.22
2023-01-10T04:54:10.440Z,4.18
2023-01-10T04:55:11.773Z,4.2
2023-01-10T04:56:12.259Z,4.27
2023-01-10T04:57:12.509Z,4.2
2023-01-10T04:58:13.427Z,4.13
2023-01-10T04:59:13.941Z,4.12
2023-01-10T05:00:14.145Z,4.18
2023-01-10T05:01:14.808Z,4.06
2023-01-10T05:02:15.588Z,4.12
2023-01-10T05:03:16.110Z,4.06
2023-01-10T05:04:16.113Z,4.02
2023-01-10T05:05:16.725Z,4.09
2023-01-10T05:06:16.936Z,4.03
2023-01-10T05:07:17.182Z,4.1
2023-01-10T05:08:18.414Z,4.02
2023-01-10T05:09:19.032Z,3.99
2023-01-10T05:10:19.258Z,4
2023-01-10T05:11:19.904Z,3.95
2023-01-10T05:12:20.801Z,3.95
2023-01-10T05:13:21.443Z,3.91
2023-01-10T05:14:22.097Z,3.94
2023-01-10T05:15:23.137Z,3.95
2023-01-10T05:16:23.796Z,3.92
2023-01-10T05:17:24.183Z,4
2023-01-10T05:18:25.100Z,3.92
2023-01-10T05:19:25.721Z,3.95
2023-01-10T05:20:26.965Z,3.91
2023-01-10T05:21:26.930Z,3.91
2023-01-10T05:22:26.883Z,3.88
2023-01-10T05:23:27.803Z,3.84
2023-01-10T05:24:28.748Z,3.81
2023-01-10T05:25:29.114Z,3.82
2023-01-10T05:26:30.400Z,3.85
2023-01-10T05:27:31.047Z,3.85
2023-01-10T05:28:31.553Z,3.85
2023-01-10T05:29:32.073Z,3.85
2023-01-10T05:30:32.424Z,3.82
2023-01-10T05:31:34.004Z,3.88
2023-01-10T05:32:34.988Z,3.86
2023-01-10T05:33:35.541Z,3.85
2023-01-10T05:34:35.880Z,3.86
2023-01-10T05:35:37.205Z,3.88
2023-01-10T05:36:37.122Z,3.85
2023-01-10T05:37:38.758Z,3.76
2023-01-10T05:38:38.665Z,3.86
2023-01-10T05:39:39.590Z,3.88
2023-01-10T05:40:40.127Z,3.84
2023-01-10T05:41:40.362Z,3.88
2023-01-10T05:42:41.288Z,3.84
2023-01-10T05:43:41.989Z,3.88
2023-01-10T05:44:42.926Z,3.84
2023-01-10T05:45:43.714Z,3.89
2023-01-10T05:46:43.532Z,3.96
2023-01-10T05:47:43.781Z,3.99
2023-01-10T05:48:43.987Z,3.99
2023-01-10T05:49:44.918Z,3.95
2023-01-10T05:50:45.407Z,3.94
2023-01-10T05:51:45.900Z,3.96
2023-01-10T05:52:46.415Z,3.96
2023-01-10T05:53:49.624Z,3.96
2023-01-10T05:54:47.472Z,3.99
2023-01-10T05:55:48.244Z,3.95
2023-01-10T05:56:49.151Z,4.02
2023-01-10T05:57:49.669Z,4.06
2023-01-10T05:59:11.714Z,4.02
2023-01-10T05:59:50.785Z,4
2023-01-10T06:00:51.524Z,4.02
2023-01-10T06:01:51.760Z,3.95
2023-01-10T06:02:52.392Z,3.92
2023-01-10T06:03:53.062Z,3.89
2023-01-10T06:04:53.696Z,3.99
2023-01-10T06:05:55.177Z,3.92
2023-01-10T06:06:55.379Z,3.82
2023-01-10T06:07:55.948Z,3.89
2023-01-10T06:08:55.859Z,3.91
2023-01-10T06:09:57.098Z,3.81
2023-01-10T06:10:57.602Z,3.91
2023-01-10T06:11:57.546Z,3.88
2023-01-10T06:12:58.205Z,3.86
2023-01-10T06:13:59.450Z,3.81
2023-01-10T06:14:59.804Z,3.76
2023-01-10T06:16:00.897Z,3.73
2023-01-10T06:17:01.125Z,3.73
2023-01-10T06:18:02.098Z,3.7
2023-01-10T06:19:02.400Z,3.74
2023-01-10T06:20:02.321Z,3.71
2023-01-10T06:21:03.241Z,3.67
2023-01-10T06:22:03.740Z,3.7
2023-01-10T06:23:03.972Z,3.68
2023-01-10T06:24:04.171Z,3.7
2023-01-10T06:25:07.923Z,3.68
2023-01-10T06:26:05.611Z,3.76
2023-01-10T06:27:05.809Z,3.64
2023-01-10T06:28:06.458Z,3.71
2023-01-10T06:29:06.655Z,3.7
2023-01-10T06:30:06.590Z,3.7
2023-01-10T06:31:07.737Z,3.71
2023-01-10T06:32:08.287Z,3.74
2023-01-10T06:33:08.553Z,3.76
2023-01-10T06:34:09.739Z,3.82
2023-01-10T06:35:09.791Z,3.85
2023-01-10T06:36:10.801Z,3.88
2023-01-10T06:37:11.992Z,3.96
2023-01-10T06:38:12.124Z,3.82
2023-01-10T06:39:12.314Z,3.85
2023-01-10T06:40:12.513Z,3.85
2023-01-10T06:41:13.950Z,3.91
2023-01-10T06:42:14.157Z,3.86
2023-01-10T06:43:15.101Z,3.77
2023-01-10T06:44:16.107Z,3.81
2023-01-10T06:45:17.333Z,3.96
2023-01-10T06:46:18.358Z,3.89
2023-01-10T06:47:18.635Z,3.94
2023-01-10T06:48:19.893Z,3.91
2023-01-10T06:49:19.833Z,3.84
2023-01-10T06:50:20.768Z,3.92
2023-01-10T06:51:21.419Z,3.86
2023-01-10T06:52:21.930Z,3.91
2023-01-10T06:53:22.877Z,3.73
2023-01-10T06:54:23.111Z,3.85
2023-01-10T06:55:23.405Z,3.68
2023-01-10T06:56:23.716Z,3.66
2023-01-10T06:57:24.187Z,3.64
2023-01-10T06:58:24.430Z,3.64
2023-01-10T06:59:24.923Z,3.58
2023-01-10T07:00:25.587Z,3.61
2023-01-10T07:01:26.574Z,3.58
2023-01-10T07:02:26.057Z,3.55
2023-01-10T07:03:26.725Z,3.52
2023-01-10T07:04:27.347Z,3.5
2023-01-10T07:05:28.269Z,3.52
2023-01-10T07:06:28.370Z,3.43
2023-01-10T07:07:29.023Z,3.34
2023-01-10T07:08:29.007Z,3.41
2023-01-10T07:09:29.992Z,3.43
2023-01-10T07:10:30.647Z,3.48
2023-01-10T07:11:31.583Z,3.46
2023-01-10T07:12:32.809Z,3.4
2023-01-10T07:13:32.746Z,3.4
2023-01-10T07:14:33.438Z,3.48
2023-01-10T07:15:34.030Z,3.46
2023-01-10T07:16:34.317Z,3.49
2023-01-10T07:17:35.234Z,3.46
2023-01-10T07:18:35.231Z,3.45
2023-01-10T07:19:35.728Z,3.48
2023-01-10T07:20:35.963Z,3.58
2023-01-10T07:21:36.911Z,3.58
2023-01-10T07:22:37.098Z,3.55
2023-01-10T07:23:37.629Z,3.61
2023-01-10T07:24:37.295Z,3.7
2023-01-10T07:25:38.489Z,3.59
2023-01-10T07:26:38.855Z,3.61
2023-01-10T07:27:39.202Z,3.7
2023-01-10T07:28:40.430Z,3.59
2023-01-10T07:29:41.357Z,3.7
2023-01-10T07:30:41.599Z,3.71
2023-01-10T07:31:41.983Z,3.73
2023-01-10T07:32:42.476Z,3.74
2023-01-10T07:33:43.028Z,3.71
2023-01-10T07:34:43.520Z,3.73
2023-01-10T07:35:44.024Z,3.76
2023-01-10T07:36:45.266Z,3.7
2023-01-10T07:37:45.473Z,3.68
2023-01-10T07:38:45.749Z,3.73
2023-01-10T07:39:46.675Z,3.66
2023-01-10T07:40:47.320Z,3.7
2023-01-10T07:41:48.254Z,3.73
2023-01-10T07:42:49.495Z,3.68
2023-01-10T07:43:49.691Z,3.73
2023-01-10T07:44:50.188Z,3.66
2023-01-10T07:45:50.278Z,3.76
2023-01-10T07:46:50.395Z,3.7
2023-01-10T07:47:51.613Z,3.74
2023-01-10T07:48:51.895Z,3.68
2023-01-10T07:49:52.388Z,3.71
2023-01-10T07:50:53.064Z,3.68
2023-01-10T07:51:53.561Z,3.73
2023-01-10T07:52:53.765Z,3.74
2023-01-10T07:53:54.016Z,3.74
2023-01-10T07:54:54.534Z,3.74
2023-01-10T07:55:55.051Z,3.78
2023-01-10T07:56:55.365Z,3.84
2023-01-10T07:57:55.993Z,3.73
2023-01-10T07:58:56.520Z,3.81
2023-01-10T07:59:57.456Z,3.82
2023-01-10T08:00:58.269Z,3.88
2023-01-10T08:01:58.595Z,3.78
2023-01-10T08:02:59.911Z,3.81
2023-01-10T08:04:00.410Z,3.77
2023-01-10T08:05:00.038Z,3.84
2023-01-10T08:05:59.957Z,3.85
2023-01-10T08:07:01.576Z,3.88
2023-01-10T08:08:01.796Z,3.81
2023-01-10T08:09:02.767Z,3.81
2023-01-10T08:10:03.260Z,3.92
2023-01-10T08:11:03.797Z,3.89
2023-01-10T08:12:04.035Z,3.89
2023-01-10T08:13:19.556Z,3.91
2023-01-10T08:14:04.524Z,3.92
2023-01-10T08:15:04.914Z,3.81
2023-01-10T08:16:06.591Z,3.84
2023-01-10T08:17:06.570Z,3.85
2023-01-10T08:18:07.329Z,3.84
2023-01-10T08:19:07.655Z,3.84
2023-01-10T08:20:07.587Z,3.85
2023-01-10T08:21:07.662Z,3.88
2023-01-10T08:22:08.588Z,3.78
2023-01-10T08:23:09.800Z,3.74
2023-01-10T08:24:10.064Z,3.74
2023-01-10T08:25:10.299Z,3.71
2023-01-10T08:26:11.254Z,3.7
2023-01-10T08:27:12.606Z,3.68
2023-01-10T08:28:13.276Z,3.73
2023-01-10T08:29:13.757Z,3.76
2023-01-10T08:30:13.716Z,3.76
2023-01-10T08:31:14.556Z,3.71
2023-01-10T08:32:14.885Z,3.76
2023-01-10T08:33:14.847Z,3.7
2023-01-10T08:34:16.129Z,3.7
2023-01-10T08:35:16.619Z,3.68
2023-01-10T08:36:16.594Z,3.73
2023-01-10T08:37:17.194Z,3.76
2023-01-10T08:38:17.584Z,3.73
2023-01-10T08:39:18.547Z,3.73
2023-01-10T08:40:19.780Z,3.74
2023-01-10T08:41:19.716Z,3.76
2023-01-10T08:42:20.956Z,3.73
2023-01-10T08:43:21.487Z,3.84
2023-01-10T08:44:22.433Z,3.71
2023-01-10T08:45:22.663Z,3.74
2023-01-10T08:46:23.377Z,3.76
2023-01-10T08:47:23.454Z,3.73
2023-01-10T08:48:23.817Z,3.71
2023-01-10T08:49:25.088Z,3.81
2023-01-10T08:50:25.326Z,3.85
2023-01-10T08:51:26.560Z,3.74
2023-01-10T08:52:26.543Z,3.85
2023-01-10T08:53:27.472Z,3.81
2023-01-10T08:54:27.718Z,3.89
2023-01-10T08:55:27.945Z,3.91
2023-01-10T08:56:28.538Z,3.95
2023-01-10T08:57:28.906Z,4.06
2023-01-10T08:58:29.432Z,4.06
2023-01-10T08:59:29.672Z,3.99
2023-01-10T09:00:29.914Z,4.03
2023-01-10T09:01:30.971Z,4.09
2023-01-10T09:02:30.616Z,4.03
2023-01-10T09:03:30.701Z,4.13
2023-01-10T09:04:33.683Z,4.07
2023-01-10T09:05:33.385Z,4.12
2023-01-10T09:06:32.315Z,4.2
2023-01-10T09:07:33.638Z,4.21
2023-01-10T09:08:33.873Z,4.2
2023-01-10T09:09:34.391Z,4.31
2023-01-10T09:10:34.897Z,4.22
2023-01-10T09:11:35.195Z,4.32
2023-01-10T09:12:35.439Z,4.32
2023-01-10T09:13:35.648Z,4.27
2023-01-10T09:14:35.880Z,4.27
2023-01-10T09:15:36.844Z,4.32
2023-01-10T09:16:37.219Z,4.27
2023-01-10T09:17:37.656Z,4.28
2023-01-10T09:18:37.626Z,4.22
2023-01-10T09:19:38.903Z,4.28
2023-01-10T09:20:39.128Z,4.22
2023-01-10T09:21:40.080Z,4.25
2023-01-10T09:22:41.311Z,4.25
2023-01-10T09:23:43.333Z,4.32
2023-01-10T09:24:42.288Z,4.31
2023-01-10T09:25:43.285Z,4.31
2023-01-10T09:26:44.519Z,4.28
2023-01-10T09:27:45.335Z,4.27
2023-01-10T09:28:49.249Z,4.45
2023-01-10T09:29:45.892Z,4.32
2023-01-10T09:30:46.132Z,4.42
2023-01-10T09:31:47.350Z,4.42
2023-01-10T09:32:47.301Z,4.3
2023-01-10T09:33:52.748Z,4.28
2023-01-10T09:34:49.449Z,4.3
2023-01-10T09:35:49.932Z,4.3
2023-01-10T09:36:50.224Z,4.3
2023-01-10T09:37:51.218Z,4.28
2023-01-10T09:38:51.752Z,4.28
2023-01-10T09:39:51.783Z,4.31
2023-01-10T09:40:52.780Z,4.3
2023-01-10T09:41:53.015Z,4.31
2023-01-10T09:42:54.269Z,4.25
2023-01-10T09:43:55.257Z,4.27
2023-01-10T09:44:55.285Z,4.32
2023-01-10T09:45:56.508Z,4.38
2023-01-10T09:46:57.286Z,4.4
2023-01-10T09:47:59.979Z,4.34
2023-01-10T09:49:00.367Z,4.32
2023-01-10T09:50:00.667Z,4.34
2023-01-10T09:51:01.018Z,4.3
2023-01-10T09:52:03.021Z,4.36
2023-01-10T09:53:01.504Z,4.31
2023-01-10T09:54:15.732Z,4.36
2023-01-10T09:55:01.721Z,4.3
2023-01-10T09:56:02.624Z,4.3
2023-01-10T09:57:03.308Z,4.42
2023-01-10T09:58:03.934Z,4.43
2023-01-10T09:59:04.543Z,4.43
2023-01-10T10:00:05.215Z,4.34
2023-01-10T10:01:05.326Z,4.43
2023-01-10T10:02:06.192Z,4.3
2023-01-10T10:03:06.885Z,4.36
2023-01-10T10:04:07.730Z,4.36
2023-01-10T10:05:08.434Z,4.45
2023-01-10T10:06:17.898Z,4.42
2023-01-10T10:07:09.376Z,4.45
2023-01-10T10:08:09.441Z,4.36
2023-01-10T10:09:11.100Z,4.32
2023-01-10T10:10:10.352Z,4.38
2023-01-10T10:11:10.878Z,4.46
2023-01-10T10:12:11.098Z,4.48
2023-01-10T10:13:26.756Z,4.57
2023-01-10T10:14:12.138Z,4.57
2023-01-10T10:15:12.648Z,4.49
2023-01-10T10:16:13.066Z,4.61
2023-01-10T10:17:13.492Z,4.57
2023-01-10T10:18:13.558Z,4.63
2023-01-10T10:19:14.779Z,4.64
2023-01-10T10:20:15.339Z,4.74
2023-01-10T10:21:15.259Z,4.66
2023-01-10T10:22:17.196Z,4.67
2023-01-10T10:23:16.825Z,4.68
2023-01-10T10:24:17.342Z,4.7
2023-01-10T10:25:16.989Z,4.79
2023-01-10T10:26:17.687Z,4.79
2023-01-10T10:27:18.914Z,4.9
2023-01-10T10:28:19.601Z,4.79
2023-01-10T10:29:19.288Z,4.92
2023-01-10T10:30:20.517Z,4.87
2023-01-10T10:31:21.272Z,5.02
2023-01-10T10:32:21.574Z,4.98
2023-01-10T10:33:21.504Z,5.07
2023-01-10T10:34:22.432Z,5.02
2023-01-10T10:35:22.443Z,5.04
2023-01-10T10:36:23.427Z,5.1
2023-01-10T10:37:24.642Z,5.18
2023-01-10T10:38:25.660Z,5.08
2023-01-10T10:39:25.908Z,5.13
2023-01-10T10:40:26.206Z,5.13
2023-01-10T10:41:26.713Z,5.22
2023-01-10T10:42:26.406Z,5.23
2023-01-10T10:43:27.722Z,5.28
2023-01-10T10:44:27.670Z,5.29
2023-01-10T10:45:31.280Z,5.31
2023-01-10T10:46:29.463Z,5.38
2023-01-10T10:47:29.802Z,5.37
2023-01-10T10:48:30.187Z,5.43
2023-01-10T10:49:31.468Z,5.4
2023-01-10T10:50:32.017Z,5.44
2023-01-10T10:51:32.558Z,5.38
2023-01-10T10:52:33.485Z,5.28
2023-01-10T10:53:34.189Z,5.22
2023-01-10T10:54:34.507Z,5.23
2023-01-10T10:55:34.979Z,5.22
2023-01-10T10:56:35.961Z,5.15
2023-01-10T10:57:35.910Z,5.12
2023-01-10T10:58:38.406Z,5.12
2023-01-10T10:59:38.331Z,5.1
2023-01-10T11:00:39.627Z,5.01
2023-01-10T11:01:40.976Z,5.01
2023-01-10T11:02:40.847Z,5.07
2023-01-10T11:03:41.520Z,5.08
2023-01-10T11:04:42.176Z,5.07
2023-01-10T11:05:42.279Z,5.04
2023-01-10T11:06:42.521Z,5.04
2023-01-10T11:07:43.059Z,5.04
2023-01-10T11:08:43.683Z,5.08
2023-01-10T11:09:45.159Z,5.02
2023-01-10T11:10:44.671Z,5.02
2023-01-10T11:11:45.394Z,5.05
2023-01-10T11:12:46.355Z,5.04
2023-01-10T11:13:46.574Z,5
2023-01-10T11:14:46.900Z,5.02
2023-01-10T11:15:47.405Z,4.98
2023-01-10T11:16:48.056Z,4.98
2023-01-10T11:17:48.378Z,4.92
2023-01-10T11:18:49.381Z,4.92
2023-01-10T11:19:49.954Z,4.89
2023-01-10T11:20:50.490Z,4.87
2023-01-10T11:21:50.690Z,5
2023-01-10T11:22:51.908Z,4.9
2023-01-10T11:23:52.114Z,4.84
2023-01-10T11:24:52.480Z,4.89
2023-01-10T11:25:53.474Z,4.98
2023-01-10T11:26:53.714Z,5.02
2023-01-10T11:27:53.658Z,4.95
2023-01-10T11:28:54.969Z,5.07
2023-01-10T11:29:55.215Z,5.05
2023-01-10T11:30:56.171Z,5.2
2023-01-10T11:31:56.680Z,5.28
2023-01-10T11:32:57.300Z,5.55
2023-01-10T11:33:57.854Z,5.73
2023-01-10T11:34:58.360Z,5.88
2023-01-10T11:35:58.637Z,5.94
2023-01-10T11:36:58.862Z,6.31
2023-01-10T11:37:59.811Z,6.49
2023-01-10T11:39:00.842Z,6.65
2023-01-10T11:40:01.358Z,6.67
2023-01-10T11:41:02.040Z,6.87
2023-01-10T11:42:02.299Z,7.15
2023-01-10T11:43:05.090Z,7.23
2023-01-10T11:44:04.028Z,7.44
2023-01-10T11:45:04.562Z,7.55
2023-01-10T11:46:05.345Z,7.78
2023-01-10T11:47:05.226Z,7.81
2023-01-10T11:48:05.955Z,7.87
2023-01-10T11:49:14.826Z,7.95
2023-01-10T11:50:16.087Z,7.99
2023-01-10T11:51:16.730Z,7.91
2023-01-10T11:52:17.663Z,8.09
2023-01-10T11:53:17.607Z,8.18
2023-01-10T11:54:18.294Z,8.24
2023-01-10T11:55:19.585Z,8.28
2023-01-10T11:56:20.805Z,8.35
2023-01-10T11:57:21.333Z,8.44
2023-01-10T11:58:21.647Z,8.42
2023-01-10T11:59:22.082Z,8.44
2023-01-10T12:00:22.331Z,8.5
2023-01-10T12:01:22.304Z,8.56
2023-01-10T12:02:22.952Z,8.52
2023-01-10T12:03:23.804Z,8.6
2023-01-10T12:04:23.728Z,8.56
2023-01-10T12:05:24.110Z,8.39
2023-01-10T12:06:24.462Z,8.32
2023-01-10T12:07:24.670Z,8.18
2023-01-10T12:08:25.177Z,8.17
2023-01-10T12:09:25.218Z,8.14
2023-01-10T12:10:27.101Z,8.13
2023-01-10T12:11:25.747Z,8.03
2023-01-10T12:12:26.435Z,7.98
2023-01-10T12:13:27.768Z,7.85
2023-01-10T12:14:28.268Z,7.74
2023-01-10T12:15:28.551Z,7.56
2023-01-10T12:16:28.741Z,7.56
2023-01-10T12:17:28.670Z,7.44
2023-01-10T12:18:29.917Z,7.33
2023-01-10T12:19:30.381Z,7.32
2023-01-10T12:20:31.625Z,7.31
2023-01-10T12:21:31.902Z,7.31
2023-01-10T12:22:32.434Z,7.39
2023-01-10T12:23:32.646Z,7.25
2023-01-10T12:24:33.202Z,7.21
2023-01-10T12:25:33.434Z,7.14
2023-01-10T12:26:34.049Z,7.03
2023-01-10T12:27:34.576Z,6.97
2023-01-10T12:28:35.496Z,7.03
2023-01-10T12:29:36.637Z,7.04
2023-01-10T12:30:36.854Z,7.13
2023-01-10T12:31:37.185Z,7.15
2023-01-10T12:32:38.440Z,7.15
2023-01-10T12:33:39.014Z,7.22
2023-01-10T12:34:39.010Z,7.28
2023-01-10T12:35:39.540Z,7.4
2023-01-10T12:36:39.839Z,7.58
2023-01-10T12:37:40.497Z,7.84
2023-01-10T12:38:41.176Z,7.83
2023-01-10T12:39:42.303Z,8.03
2023-01-10T12:40:43.807Z,8.31
2023-01-10T12:41:44.185Z,8.39
2023-01-10T12:42:44.156Z,8.44
2023-01-10T12:43:45.661Z,8.68
2023-01-10T12:44:46.584Z,8.61
2023-01-10T12:45:46.929Z,8.63
2023-01-10T12:47:14.121Z,8.61
2023-01-10T12:47:47.796Z,8.52
2023-01-10T12:48:48.326Z,8.52
2023-01-10T12:49:48.673Z,8.49
2023-01-10T12:50:49.649Z,8.54
2023-01-10T12:51:50.655Z,8.53
2023-01-10T12:52:50.573Z,8.6
2023-01-10T12:53:51.662Z,8.39
2023-01-10T12:54:52.425Z,8.59
2023-01-10T12:55:53.143Z,8.54
2023-01-10T12:56:53.976Z,8.49
2023-01-10T12:57:57.822Z,8.41
2023-01-10T12:58:54.795Z,8.42
2023-01-10T12:59:55.571Z,8.46
2023-01-10T13:00:55.726Z,8.36
2023-01-10T13:01:57.077Z,8.41
2023-01-10T13:02:57.161Z,8.6
2023-01-10T13:03:57.615Z,8.53
2023-01-10T13:04:57.861Z,8.38
2023-01-10T13:05:58.832Z,8.39
2023-01-10T13:06:59.604Z,8.41
2023-01-10T13:08:00.060Z,8.39
2023-01-10T13:08:59.998Z,8.28
2023-01-10T13:10:00.581Z,8.2
2023-01-10T13:11:01.081Z,8.06
2023-01-10T13:12:01.579Z,8.03
2023-01-10T13:13:02.174Z,7.9
2023-01-10T13:14:02.424Z,7.88
2023-01-10T13:15:02.389Z,7.85
2023-01-10T13:16:02.960Z,7.88
2023-01-10T13:17:02.827Z,7.84
2023-01-10T13:18:03.338Z,7.85
2023-01-10T13:19:03.930Z,7.91
2023-01-10T13:20:04.278Z,7.8
2023-01-10T13:21:04.492Z,7.7
2023-01-10T13:22:04.744Z,7.55
2023-01-10T13:23:05.033Z,7.51
2023-01-10T13:24:05.053Z,7.7
2023-01-10T13:25:05.275Z,7.78
2023-01-10T13:26:05.889Z,7.69
2023-01-10T13:27:06.540Z,7.72
2023-01-10T13:28:07.788Z,7.75
2023-01-10T13:29:08.003Z,7.7
2023-01-10T13:30:09.139Z,7.69